Time;durP1;ratioP1;P1;durP2;ratioP2;P2;SDS_P1;SDS_P2;PMS_P1;PMS_P2;Temp;Humidity;BMP_temperature;BMP_pressure;BME280_temperature;BME280_humidity;BME280_pressure;Samples;Min_cycle;Max_cycle;Signal;HPM_P1;HPM_P2
2022/06/20 00:01:31;;;;;;;5.15;1.45;;;16.40;99.90;;;;;;4162292;28;20494;-70
2022/06/20 00:03:39;;;;;;;4.03;1.50;;;16.30;99.90;;;;;;4162595;28;20044;-69
2022/06/20 00:05:40;;;;;;;2.67;1.10;;;16.40;99.90;;;;;;4162586;28;20045;-69
2022/06/20 00:07:40;;;;;;;1.35;0.90;;;16.50;99.90;;;;;;4163102;28;20485;-70
2022/06/20 00:09:41;;;;;;;2.10;1.10;;;16.50;99.90;;;;;;4159718;28;20030;-70
2022/06/20 00:11:44;;;;;;;4.38;1.30;;;16.60;99.90;;;;;;4160374;28;20040;-70
2022/06/20 00:13:48;;;;;;;3.75;1.27;;;16.70;99.90;;;;;;4158291;28;20422;-70
2022/06/20 00:15:50;;;;;;;5.70;1.00;;;16.70;99.90;;;;;;4161031;28;20435;-69
2022/06/20 00:17:51;;;;;;;1.35;0.88;;;16.70;99.90;;;;;;4161463;28;20036;-70
2022/06/20 00:19:52;;;;;;;3.80;1.25;;;16.80;99.90;;;;;;4160182;28;20029;-70
2022/06/20 00:21:53;;;;;;;2.80;1.00;;;16.80;99.90;;;;;;4161155;28;20121;-70
2022/06/20 00:23:54;;;;;;;2.28;1.00;;;16.90;99.90;;;;;;4160665;28;20079;-70
2022/06/20 00:25:55;;;;;;;2.72;1.27;;;17.00;99.90;;;;;;4160301;28;20183;-70
2022/06/20 00:27:56;;;;;;;4.78;1.27;;;17.00;99.90;;;;;;4159370;28;20432;-70
2022/06/20 00:29:57;;;;;;;1.73;0.85;;;17.00;99.90;;;;;;4152819;28;20041;-70
2022/06/20 00:31:57;;;;;;;5.55;1.75;;;17.00;99.90;;;;;;4159856;28;20110;-70
2022/06/20 00:33:58;;;;;;;3.35;1.23;;;16.90;99.90;;;;;;4160699;28;20037;-70
2022/06/20 00:35:59;;;;;;;3.30;1.33;;;17.00;99.90;;;;;;4160501;28;20163;-70
2022/06/20 00:38:03;;;;;;;10.88;1.38;;;17.00;99.90;;;;;;4159582;28;20433;-70
2022/06/20 00:40:17;;;;;;;4.50;1.08;;;17.10;99.90;;;;;;4159938;28;20029;-70
2022/06/20 00:42:17;;;;;;;6.55;1.73;;;17.10;99.90;;;;;;4160079;28;20045;-70
2022/06/20 00:44:30;;;;;;;4.28;1.40;;;17.20;99.90;;;;;;4160891;28;20052;-70
2022/06/20 00:46:43;;;;;;;4.00;1.30;;;17.20;99.90;;;;;;4149593;28;20529;-70
2022/06/20 00:48:54;;;;;;;2.83;1.13;;;17.20;99.90;;;;;;4159527;28;20030;-70
2022/06/20 00:51:01;;;;;;;5.38;1.10;;;17.30;99.90;;;;;;4173471;28;20062;-70
2022/06/20 00:53:11;;;;;;;4.15;1.40;;;17.30;99.90;;;;;;4160488;28;20557;-70
2022/06/20 00:55:22;;;;;;;4.63;1.52;;;17.30;99.90;;;;;;4161683;28;20122;-70
2022/06/20 00:57:35;;;;;;;4.93;1.30;;;17.40;99.90;;;;;;4155559;28;20096;-69
2022/06/20 00:59:40;;;;;;;4.70;1.60;;;17.40;99.90;;;;;;4161298;28;20021;-70
2022/06/20 01:01:41;;;;;;;5.55;1.10;;;17.40;99.90;;;;;;4162194;28;20037;-70
2022/06/20 01:03:48;;;;;;;5.45;1.70;;;17.40;99.90;;;;;;4162310;28;20065;-69
2022/06/20 01:06:24;;;;;;;6.60;1.40;;;17.40;99.90;;;;;;4161835;28;20153;-69
2022/06/20 01:08:29;;;;;;;5.57;1.70;;;17.40;99.90;;;;;;4147816;28;20363;-70
2022/06/20 01:10:40;;;;;;;4.47;1.35;;;17.40;99.90;;;;;;4155968;28;20033;-70
2022/06/20 01:12:55;;;;;;;3.47;1.20;;;17.40;99.90;;;;;;4174210;28;20061;-69
2022/06/20 01:14:56;;;;;;;6.68;1.25;;;17.40;99.90;;;;;;4157658;28;20053;-70
2022/06/20 01:16:58;;;;;;;3.42;1.20;;;17.40;99.90;;;;;;4158548;28;20033;-70
2022/06/20 01:19:06;;;;;;;4.40;1.45;;;17.40;99.90;;;;;;4158242;28;20049;-70
2022/06/20 01:21:15;;;;;;;4.78;1.42;;;17.30;99.90;;;;;;4157674;28;20048;-70
2022/06/20 01:23:35;;;;;;;4.30;1.40;;;17.20;99.90;;;;;;4159983;28;20035;-70
2022/06/20 01:25:47;;;;;;;4.50;1.45;;;17.20;99.90;;;;;;4156624;28;20489;-70
2022/06/20 01:27:50;;;;;;;2.72;1.13;;;17.20;99.90;;;;;;4158571;28;20053;-70
2022/06/20 01:29:51;;;;;;;1.80;0.93;;;17.20;99.90;;;;;;4159802;28;20026;-70
2022/06/20 01:31:56;;;;;;;3.30;1.48;;;17.30;99.90;;;;;;4159843;28;20033;-70
2022/06/20 01:33:59;;;;;;;4.88;1.52;;;17.30;99.90;;;;;;4159813;28;20091;-70
2022/06/20 01:38:19;;;;;;;2.47;1.15;;;17.30;99.90;;;;;;4160463;28;20040;-70
2022/06/20 01:40:20;;;;;;;3.92;1.05;;;17.40;99.90;;;;;;4159697;28;20450;-70
2022/06/20 01:42:23;;;;;;;2.13;1.08;;;17.40;99.90;;;;;;4161476;28;20038;-69
2022/06/20 01:44:24;;;;;;;2.72;1.33;;;17.50;99.90;;;;;;4160796;28;20458;-69
2022/06/20 01:46:30;;;;;;;2.72;1.10;;;17.50;99.90;;;;;;4159355;28;20041;-69
2022/06/20 01:48:32;;;;;;;2.17;1.00;;;17.50;99.90;;;;;;4152754;28;20072;-69
2022/06/20 01:50:34;;;;;;;4.57;1.08;;;17.60;99.90;;;;;;4161000;28;20033;-69
2022/06/20 01:52:40;;;;;;;2.75;1.00;;;17.60;99.90;;;;;;4148239;28;20065;-69
2022/06/20 01:54:54;;;;;;;2.72;1.10;;;17.60;99.90;;;;;;4144757;28;20050;-70
2022/06/20 01:56:55;;;;;;;3.58;1.10;;;17.60;99.90;;;;;;4157707;28;20038;-70
2022/06/20 01:59:10;;;;;;;1.92;0.85;;;17.70;99.90;;;;;;4159140;28;20112;-70
2022/06/20 02:01:13;;;;;;;3.22;1.42;;;17.70;99.90;;;;;;4158051;28;20116;-69
2022/06/20 02:03:17;;;;;;;4.80;1.50;;;17.70;99.90;;;;;;4161628;28;20389;-70
2022/06/20 02:05:22;;;;;;;2.75;1.40;;;17.60;99.90;;;;;;4159911;28;20083;-69
2022/06/20 02:07:23;;;;;;;3.53;1.00;;;17.60;99.90;;;;;;4159982;28;20026;-70
2022/06/20 02:09:24;;;;;;;5.57;1.25;;;17.50;99.90;;;;;;4160218;28;20567;-70
2022/06/20 02:11:34;;;;;;;3.58;1.60;;;17.50;99.90;;;;;;4160528;28;20080;-70
2022/06/20 02:13:42;;;;;;;5.35;1.25;;;17.20;99.90;;;;;;4160522;28;20026;-70
2022/06/20 02:15:46;;;;;;;5.28;1.38;;;17.10;99.90;;;;;;4160065;28;20048;-70
2022/06/20 02:17:50;;;;;;;6.57;1.50;;;17.00;99.90;;;;;;4151817;28;20088;-69
2022/06/20 02:19:53;;;;;;;8.13;1.50;;;16.70;99.90;;;;;;4156786;28;20482;-70
2022/06/20 02:22:00;;;;;;;4.15;1.42;;;16.60;99.90;;;;;;4155373;28;20022;-69
2022/06/20 02:24:09;;;;;;;3.20;1.27;;;16.50;99.90;;;;;;4158254;28;20041;-69
2022/06/20 02:26:11;;;;;;;4.68;1.48;;;16.50;99.90;;;;;;4160165;28;20064;-69
2022/06/20 02:28:20;;;;;;;4.60;1.38;;;16.40;99.90;;;;;;4154377;28;20037;-69
2022/06/20 02:30:21;;;;;;;2.90;1.20;;;16.40;99.90;;;;;;4160495;28;20033;-69
2022/06/20 02:32:25;;;;;;;4.53;1.50;;;16.50;99.90;;;;;;4162310;28;20379;-69
2022/06/20 02:34:28;;;;;;;3.53;1.52;;;16.50;99.90;;;;;;4165037;28;20033;-70
2022/06/20 02:36:31;;;;;;;5.28;1.73;;;16.60;99.90;;;;;;4158722;28;20060;-70
2022/06/20 02:38:33;;;;;;;5.85;1.58;;;16.60;99.90;;;;;;4164337;28;20065;-70
2022/06/20 02:40:35;;;;;;;2.53;1.08;;;16.60;99.90;;;;;;4163841;28;20100;-70
2022/06/20 02:42:54;;;;;;;9.95;1.63;;;16.60;99.90;;;;;;4165698;28;20037;-69
2022/06/20 02:44:56;;;;;;;4.03;1.38;;;16.60;99.90;;;;;;4160114;28;20106;-70
2022/06/20 02:47:01;;;;;;;4.78;1.80;;;16.70;99.90;;;;;;4162537;28;20065;-70
2022/06/20 02:49:04;;;;;;;4.10;1.60;;;16.80;99.90;;;;;;4176803;28;20033;-70
2022/06/20 02:51:07;;;;;;;3.88;1.40;;;16.80;99.90;;;;;;4164224;28;20033;-70
2022/06/20 02:53:23;;;;;;;4.63;1.60;;;16.80;99.90;;;;;;4164274;28;20029;-69
2022/06/20 02:55:25;;;;;;;3.83;1.45;;;16.80;99.90;;;;;;4163358;28;20528;-69
2022/06/20 02:57:40;;;;;;;3.85;1.42;;;16.80;99.90;;;;;;4162940;28;20030;-70
2022/06/20 02:59:47;;;;;;;5.97;2.05;;;16.90;99.90;;;;;;4161929;28;20033;-70
2022/06/20 03:02:05;;;;;;;4.10;1.70;;;16.90;99.90;;;;;;4164149;28;20048;-70
2022/06/20 03:04:10;;;;;;;11.32;1.73;;;16.80;99.90;;;;;;4155043;28;20033;-70
2022/06/20 03:06:26;;;;;;;7.38;2.08;;;16.80;99.90;;;;;;4160011;28;20060;-69
2022/06/20 03:08:27;;;;;;;3.92;1.65;;;16.80;99.90;;;;;;4162890;28;20172;-69
2022/06/20 03:10:55;;;;;;;8.45;2.30;;;16.80;99.90;;;;;;4162327;28;20038;-70
2022/06/20 03:12:56;;;;;;;5.13;1.80;;;16.70;99.90;;;;;;4160736;28;20065;-70
2022/06/20 03:15:00;;;;;;;3.88;1.52;;;16.70;99.90;;;;;;4154412;28;20088;-69
2022/06/20 03:17:03;;;;;;;6.78;1.75;;;16.70;99.90;;;;;;4153347;28;20454;-69
2022/06/20 03:19:03;;;;;;;8.75;1.85;;;16.70;99.90;;;;;;4162708;28;20041;-69
2022/06/20 03:21:05;;;;;;;6.60;1.85;;;16.70;99.90;;;;;;4161358;28;20478;-69
2022/06/20 03:23:16;;;;;;;8.80;1.77;;;16.60;99.90;;;;;;4162316;28;20508;-69
2022/06/20 03:25:18;;;;;;;7.45;1.70;;;16.60;99.90;;;;;;4161825;28;21186;-69
2022/06/20 03:27:24;;;;;;;4.88;1.15;;;16.60;99.90;;;;;;4162349;28;20057;-69
2022/06/20 03:29:25;;;;;;;7.35;1.70;;;16.60;99.90;;;;;;4161575;28;20083;-69
2022/06/20 03:31:26;;;;;;;7.82;2.08;;;16.60;99.90;;;;;;4161468;28;20489;-70
2022/06/20 03:33:27;;;;;;;3.72;1.60;;;16.60;99.90;;;;;;4162425;28;20072;-69
2022/06/20 03:35:30;;;;;;;2.90;1.33;;;16.60;99.90;;;;;;4157286;28;20037;-69
2022/06/20 03:37:30;;;;;;;6.50;1.90;;;16.60;99.90;;;;;;4162950;28;20512;-69
2022/06/20 03:39:31;;;;;;;4.70;1.70;;;16.70;99.90;;;;;;4162849;28;20038;-69
2022/06/20 03:41:33;;;;;;;5.93;1.65;;;16.70;99.90;;;;;;4161495;28;20033;-70
2022/06/20 03:43:35;;;;;;;8.98;2.22;;;16.70;99.90;;;;;;4163355;28;20103;-69
2022/06/20 03:45:39;;;;;;;3.13;1.48;;;16.70;99.90;;;;;;4162551;28;20033;-70
2022/06/20 03:47:57;;;;;;;5.00;1.60;;;16.70;99.90;;;;;;4162737;28;20029;-69
2022/06/20 03:50:02;;;;;;;5.68;1.70;;;16.70;99.90;;;;;;4157700;28;20034;-70
2022/06/20 03:52:11;;;;;;;9.25;2.42;;;16.70;99.90;;;;;;4160437;28;20032;-70
2022/06/20 03:54:21;;;;;;;5.00;1.92;;;16.70;99.90;;;;;;4156850;28;20529;-70
2022/06/20 03:56:35;;;;;;;5.25;1.80;;;16.70;99.90;;;;;;4161431;28;20032;-70
2022/06/20 03:58:41;;;;;;;8.02;2.30;;;16.70;99.90;;;;;;4160255;28;20542;-70
2022/06/20 04:00:56;;;;;;;6.93;2.00;;;16.70;99.90;;;;;;4161985;28;20034;-70
2022/06/20 04:03:08;;;;;;;11.68;2.60;;;16.70;99.90;;;;;;4158225;28;20041;-70
2022/06/20 04:05:24;;;;;;;6.45;2.13;;;16.60;99.90;;;;;;4159750;28;20040;-70
2022/06/20 04:07:46;;;;;;;8.88;2.47;;;16.60;99.90;;;;;;4158926;28;20029;-70
2022/06/20 04:12:39;;;;;;;6.85;2.38;;;16.60;99.90;;;;;;4161076;28;20052;-70
2022/06/20 04:14:58;;;;;;;8.40;1.90;;;16.60;99.90;;;;;;4160153;28;20033;-70
2022/06/20 04:18:27;;;;;;;5.72;2.10;;;16.60;99.90;;;;;;4157507;28;20552;-69
2022/06/20 04:19:39;;;;;;;9.77;2.60;;;16.60;99.90;;;;;;4159328;28;20029;-70
2022/06/20 04:21:51;;;;;;;9.88;2.20;;;16.50;99.90;;;;;;4158796;28;20073;-70
2022/06/20 04:24:15;;;;;;;6.53;2.50;;;16.50;99.90;;;;;;4158190;28;20042;-70
2022/06/20 04:26:31;;;;;;;8.10;1.88;;;16.50;99.90;;;;;;4154431;28;20057;-69
2022/06/20 04:28:43;;;;;;;5.97;1.80;;;16.60;99.90;;;;;;4159946;28;20044;-70
2022/06/20 04:30:58;;;;;;;5.93;2.03;;;16.60;99.90;;;;;;4159349;28;20052;-70
2022/06/20 04:33:09;;;;;;;6.68;1.80;;;16.70;99.90;;;;;;4161184;28;20071;-70
2022/06/20 04:35:23;;;;;;;5.85;1.63;;;16.70;99.90;;;;;;4155609;28;20108;-70
2022/06/20 04:37:33;;;;;;;12.70;2.38;;;16.70;99.90;;;;;;4159516;28;20056;-70
2022/06/20 04:39:47;;;;;;;7.55;2.08;;;16.70;99.90;;;;;;4160087;28;20502;-70
2022/06/20 04:41:58;;;;;;;7.30;2.17;;;16.70;99.90;;;;;;4157131;28;20042;-70
2022/06/20 04:44:05;;;;;;;5.05;1.67;;;16.80;99.90;;;;;;4154085;28;20040;-70
2022/06/20 04:46:15;;;;;;;9.52;1.80;;;16.80;99.90;;;;;;4152412;28;20050;-69
2022/06/20 04:48:19;;;;;;;5.70;1.48;;;16.90;99.90;;;;;;4151810;28;20152;-70
2022/06/20 04:50:23;;;;;;;8.65;2.35;;;16.90;99.90;;;;;;4159379;28;20109;-70
2022/06/20 04:52:27;;;;;;;7.88;2.10;;;16.90;99.90;;;;;;4160377;28;20044;-69
2022/06/20 04:54:28;;;;;;;6.90;1.88;;;16.90;99.90;;;;;;4158638;28;20036;-71
2022/06/20 04:56:29;;;;;;;4.55;1.63;;;17.00;99.90;;;;;;4159233;28;20025;-70
2022/06/20 04:58:39;;;;;;;3.78;1.50;;;17.00;99.90;;;;;;4155545;28;20038;-69
2022/06/20 05:00:42;;;;;;;4.38;1.55;;;17.00;99.90;;;;;;4149291;28;20036;-69
2022/06/20 05:02:43;;;;;;;7.65;2.08;;;17.00;99.90;;;;;;4157803;28;20034;-69
2022/06/20 05:04:46;;;;;;;4.45;1.60;;;17.00;99.90;;;;;;4156818;28;20038;-69
2022/06/20 05:06:47;;;;;;;4.47;1.50;;;17.10;99.90;;;;;;4158235;28;20421;-69
2022/06/20 05:08:52;;;;;;;4.72;1.70;;;17.10;99.90;;;;;;4154066;28;20057;-69
2022/06/20 05:11:28;;;;;;;4.40;1.58;;;17.10;99.90;;;;;;4154808;28;20044;-69
2022/06/20 05:13:43;;;;;;;6.45;1.65;;;17.10;99.90;;;;;;4111977;28;20034;-69
2022/06/20 05:15:49;;;;;;;4.20;1.40;;;17.20;99.90;;;;;;4147742;28;20497;-69
2022/06/20 05:17:51;;;;;;;6.22;1.70;;;17.20;99.90;;;;;;4157880;28;20088;-69
2022/06/20 05:19:57;;;;;;;4.50;1.58;;;17.20;99.90;;;;;;4156952;28;20349;-70
2022/06/20 05:22:03;;;;;;;5.85;1.60;;;17.20;99.90;;;;;;4157518;28;20407;-69
2022/06/20 05:24:16;;;;;;;5.05;1.48;;;17.20;99.90;;;;;;4161230;28;20469;-69
2022/06/20 05:26:21;;;;;;;4.45;1.50;;;17.20;99.90;;;;;;4153977;28;20139;-69
2022/06/20 05:28:24;;;;;;;7.25;1.67;;;17.20;99.90;;;;;;4150939;28;20505;-69
2022/06/20 05:30:29;;;;;;;3.38;1.42;;;17.20;99.90;;;;;;4149133;28;20037;-68
2022/06/20 05:32:45;;;;;;;5.82;1.30;;;17.30;99.90;;;;;;4147629;28;20080;-69
2022/06/20 05:35:00;;;;;;;5.20;1.42;;;17.30;99.90;;;;;;4141766;28;20045;-69
2022/06/20 05:37:09;;;;;;;5.03;1.35;;;17.30;99.90;;;;;;4150808;28;20047;-69
2022/06/20 05:39:26;;;;;;;4.00;1.40;;;17.30;99.90;;;;;;4152434;28;20041;-69
2022/06/20 05:41:27;;;;;;;5.75;1.73;;;17.40;99.90;;;;;;4162875;28;20034;-68
2022/06/20 05:43:30;;;;;;;8.73;1.83;;;17.40;99.90;;;;;;4151767;28;20064;-69
2022/06/20 05:45:30;;;;;;;7.30;1.88;;;17.40;99.90;;;;;;4150998;28;21607;-69
2022/06/20 05:47:35;;;;;;;6.20;1.55;;;17.40;99.90;;;;;;4154178;28;20028;-69
2022/06/20 05:49:49;;;;;;;6.57;1.75;;;17.40;99.90;;;;;;4150583;28;20080;-69
2022/06/20 05:51:50;;;;;;;8.00;1.98;;;17.30;99.90;;;;;;4148134;28;20037;-69
2022/06/20 05:54:29;;;;;;;4.32;1.30;;;17.30;99.90;;;;;;4149791;28;20037;-70
2022/06/20 05:56:42;;;;;;;7.70;2.55;;;17.40;99.90;;;;;;4142261;28;20065;-69
2022/06/20 05:58:44;;;;;;;5.95;1.77;;;17.30;99.90;;;;;;4150707;28;20033;-69
2022/06/20 06:00:46;;;;;;;5.18;1.55;;;17.30;99.90;;;;;;4148999;28;20087;-69
2022/06/20 06:02:54;;;;;;;8.25;1.88;;;17.30;99.90;;;;;;4148045;28;20100;-69
2022/06/20 06:05:07;;;;;;;6.28;1.83;;;17.30;99.90;;;;;;4149048;28;20415;-69
2022/06/20 06:07:25;;;;;;;5.78;1.70;;;17.20;99.90;;;;;;4146618;28;20079;-69
2022/06/20 06:10:06;;;;;;;5.13;1.60;;;17.30;99.90;;;;;;4154731;28;20118;-69
2022/06/20 06:12:13;;;;;;;5.95;1.73;;;17.20;99.90;;;;;;4148582;28;20041;-69
2022/06/20 06:14:25;;;;;;;6.57;1.75;;;17.20;99.90;;;;;;4153059;28;20045;-69
2022/06/20 06:16:49;;;;;;;7.20;2.17;;;17.20;99.90;;;;;;4153549;28;20034;-69
2022/06/20 06:19:03;;;;;;;5.28;1.48;;;17.20;99.90;;;;;;4155208;28;20046;-68
2022/06/20 06:21:04;;;;;;;8.25;2.40;;;17.20;99.90;;;;;;4155736;28;20486;-69
2022/06/20 06:23:08;;;;;;;7.60;1.40;;;17.20;99.90;;;;;;4155698;28;20041;-69
2022/06/20 06:25:28;;;;;;;7.05;1.88;;;17.20;99.90;;;;;;4156222;28;20087;-69
2022/06/20 06:27:33;;;;;;;6.93;1.58;;;17.20;99.90;;;;;;4152609;28;20032;-69
2022/06/20 06:29:55;;;;;;;4.93;1.60;;;17.20;99.90;;;;;;4155632;28;20133;-69
2022/06/20 06:32:03;;;;;;;8.85;1.92;;;17.20;99.90;;;;;;4153658;28;20030;-69
2022/06/20 06:34:40;;;;;;;5.22;1.60;;;17.20;99.90;;;;;;4156211;28;20044;-69
2022/06/20 06:37:03;;;;;;;4.85;1.83;;;17.20;99.90;;;;;;4154236;28;20042;-69
2022/06/20 06:39:15;;;;;;;4.75;1.45;;;17.20;99.90;;;;;;4155218;28;20042;-69
2022/06/20 06:41:32;;;;;;;3.85;1.40;;;17.20;99.90;;;;;;4154629;28;20037;-69
2022/06/20 06:43:38;;;;;;;5.53;1.88;;;17.30;99.90;;;;;;4150151;28;20091;-69
2022/06/20 06:45:39;;;;;;;5.88;1.70;;;17.30;99.90;;;;;;4151846;28;20053;-69
2022/06/20 06:47:45;;;;;;;8.48;2.10;;;17.30;99.90;;;;;;4149748;28;20030;-69
2022/06/20 06:49:49;;;;;;;5.35;1.35;;;17.30;99.90;;;;;;4154610;28;20555;-69
2022/06/20 06:52:05;;;;;;;7.07;1.45;;;17.30;99.90;;;;;;4154149;28;20041;-69
2022/06/20 06:54:15;;;;;;;8.70;1.95;;;17.30;99.90;;;;;;4148397;28;20368;-69
2022/06/20 06:56:25;;;;;;;8.07;1.60;;;17.40;99.90;;;;;;4156146;28;20526;-69
2022/06/20 06:58:37;;;;;;;5.53;1.75;;;17.40;99.90;;;;;;4150967;28;20041;-69
2022/06/20 07:00:42;;;;;;;6.72;1.52;;;17.40;99.90;;;;;;4155578;28;20056;-69
2022/06/20 07:02:53;;;;;;;7.63;1.65;;;17.40;99.90;;;;;;4154828;28;20112;-69
2022/06/20 07:05:05;;;;;;;4.07;1.30;;;17.40;99.90;;;;;;4155107;28;20025;-69
2022/06/20 07:07:29;;;;;;;3.85;1.35;;;17.40;99.90;;;;;;4149516;28;20046;-69
2022/06/20 07:09:34;;;;;;;5.88;1.60;;;17.40;99.90;;;;;;4155446;28;20056;-69
2022/06/20 07:11:38;;;;;;;7.85;1.67;;;17.50;99.90;;;;;;4172071;28;20506;-69
2022/06/20 07:14:01;;;;;;;6.07;1.83;;;17.60;99.90;;;;;;4149505;28;20044;-69
2022/06/20 07:16:05;;;;;;;4.53;1.48;;;17.70;99.90;;;;;;4143895;28;20029;-69
2022/06/20 07:18:41;;;;;;;4.15;1.70;;;17.80;99.90;;;;;;4154089;28;20039;-69
2022/06/20 07:20:43;;;;;;;10.15;2.58;;;17.90;99.90;;;;;;4155231;28;20029;-69
2022/06/20 07:22:45;;;;;;;5.38;1.85;;;18.00;99.90;;;;;;4156822;28;20040;-69
2022/06/20 07:24:46;;;;;;;4.20;1.30;;;18.00;99.90;;;;;;4155088;28;20065;-69
2022/06/20 07:27:06;;;;;;;6.17;1.70;;;18.10;99.90;;;;;;4157051;28;20045;-68
2022/06/20 07:29:22;;;;;;;4.28;1.42;;;18.30;99.90;;;;;;4154748;28;20594;-69
2022/06/20 07:31:37;;;;;;;5.35;1.52;;;18.40;99.90;;;;;;4156796;28;20040;-69
2022/06/20 07:33:43;;;;;;;5.95;1.45;;;18.60;99.90;;;;;;4141379;28;20049;-68
2022/06/20 07:35:49;;;;;;;5.88;1.80;;;18.60;99.90;;;;;;4149247;28;20037;-68
2022/06/20 07:38:03;;;;;;;5.47;1.63;;;18.70;99.90;;;;;;4150196;28;20112;-69
2022/06/20 07:40:31;;;;;;;3.72;1.33;;;18.90;99.90;;;;;;4141105;28;20513;-69
2022/06/20 07:42:50;;;;;;;2.83;0.90;;;19.00;99.90;;;;;;4150204;28;20032;-69
2022/06/20 07:45:02;;;;;;;4.03;1.30;;;19.20;99.90;;;;;;4150436;28;20038;-69
2022/06/20 07:47:13;;;;;;;4.27;1.30;;;19.30;99.90;;;;;;4140792;28;20503;-69
2022/06/20 07:49:24;;;;;;;4.65;1.23;;;19.30;99.90;;;;;;4145283;28;20108;-69
2022/06/20 07:51:36;;;;;;;3.70;1.25;;;19.50;99.90;;;;;;4156025;28;20095;-69
2022/06/20 07:53:40;;;;;;;6.17;1.47;;;19.70;99.90;;;;;;4144161;28;20033;-69
2022/06/20 07:55:45;;;;;;;2.15;0.90;;;19.80;99.90;;;;;;4156131;28;20037;-69
2022/06/20 07:57:52;;;;;;;4.50;0.95;;;19.90;99.90;;;;;;4155598;28;20037;-69
2022/06/20 08:00:15;;;;;;;1.90;0.75;;;20.00;99.90;;;;;;4155892;28;20038;-69
2022/06/20 08:02:22;;;;;;;1.80;1.00;;;20.00;99.90;;;;;;4148326;28;20073;-69
2022/06/20 08:04:44;;;;;;;5.40;1.45;;;20.10;99.90;;;;;;4145764;28;20037;-69
2022/06/20 08:06:53;;;;;;;3.90;1.20;;;20.10;99.90;;;;;;4156558;28;20523;-69
2022/06/20 08:09:00;;;;;;;5.88;1.30;;;20.00;99.90;;;;;;4156215;28;20041;-69
2022/06/20 08:11:06;;;;;;;3.60;1.00;;;20.00;99.90;;;;;;4149003;28;20501;-69
2022/06/20 08:13:23;;;;;;;3.78;1.17;;;19.90;99.90;;;;;;4146724;28;20486;-69
2022/06/20 08:15:28;;;;;;;3.13;0.90;;;19.80;99.90;;;;;;4147331;28;20034;-69
2022/06/20 08:17:30;;;;;;;3.67;1.52;;;19.70;99.90;;;;;;4152833;28;20041;-69
2022/06/20 08:19:31;;;;;;;4.82;1.30;;;19.60;99.90;;;;;;4152173;28;20033;-69
2022/06/20 08:21:41;;;;;;;3.13;1.00;;;19.70;99.90;;;;;;4148880;28;20025;-69
2022/06/20 08:23:50;;;;;;;4.78;1.20;;;19.80;99.90;;;;;;4149088;28;20042;-69
2022/06/20 08:25:59;;;;;;;3.53;1.20;;;19.80;99.90;;;;;;4150317;28;20049;-69
2022/06/20 08:28:16;;;;;;;6.70;1.90;;;19.80;99.90;;;;;;4156012;28;20025;-69
2022/06/20 08:30:54;;;;;;;3.25;1.10;;;19.90;99.90;;;;;;4154768;28;21086;-69
2022/06/20 08:33:19;;;;;;;7.53;2.28;;;19.90;99.90;;;;;;4117365;28;20057;-69
2022/06/20 08:35:27;;;;;;;3.72;1.00;;;19.90;99.90;;;;;;4137773;28;20156;-68
2022/06/20 08:37:38;;;;;;;6.05;1.40;;;19.90;99.90;;;;;;4153309;28;20374;-69
2022/06/20 08:40:11;;;;;;;6.50;1.40;;;19.80;99.90;;;;;;4150174;28;20040;-70
2022/06/20 08:42:38;;;;;;;3.50;1.40;;;19.70;99.90;;;;;;4140589;28;20041;-69
2022/06/20 08:44:54;;;;;;;3.55;1.30;;;19.70;99.90;;;;;;4149005;28;20134;-69
2022/06/20 08:47:25;;;;;;;1.95;0.93;;;19.70;99.90;;;;;;4150020;28;20036;-69
2022/06/20 08:49:53;;;;;;;2.20;1.00;;;19.70;99.90;;;;;;4149468;28;20059;-69
2022/06/20 08:52:23;;;;;;;2.80;1.00;;;19.60;99.90;;;;;;4154633;28;20199;-69
2022/06/20 08:54:58;;;;;;;2.72;1.13;;;19.70;99.90;;;;;;4082349;29;20047;-69
2022/06/20 08:57:22;;;;;;;3.38;1.30;;;19.60;99.90;;;;;;4150081;28;20136;-69
2022/06/20 08:59:59;;;;;;;5.38;1.23;;;19.70;99.90;;;;;;4164549;28;20056;-69
2022/06/20 09:02:04;;;;;;;2.22;0.85;;;19.80;99.90;;;;;;4146226;28;20072;-69
2022/06/20 09:04:35;;;;;;;1.70;1.00;;;19.70;99.90;;;;;;4151742;28;20034;-70
2022/06/20 09:06:42;;;;;;;3.30;1.35;;;19.80;99.90;;;;;;4141064;28;20052;-70
2022/06/20 09:09:01;;;;;;;2.83;1.02;;;19.80;99.90;;;;;;4140108;28;20042;-67
2022/06/20 09:11:01;;;;;;;4.00;1.17;;;19.80;99.90;;;;;;4144317;28;20038;-67
2022/06/20 09:13:42;;;;;;;4.10;1.65;;;19.90;99.90;;;;;;4155555;28;20052;-67
2022/06/20 09:16:04;;;;;;;3.53;1.35;;;20.00;99.90;;;;;;4149477;28;20044;-67
2022/06/20 09:18:18;;;;;;;1.83;0.77;;;20.20;99.90;;;;;;4150260;28;20061;-67
2022/06/20 09:20:29;;;;;;;3.65;1.42;;;20.20;99.90;;;;;;4150477;28;20034;-67
2022/06/20 09:22:41;;;;;;;2.63;0.95;;;20.20;98.40;;;;;;4150541;28;20436;-68
2022/06/20 09:25:06;;;;;;;3.15;1.00;;;20.20;99.50;;;;;;4149985;28;20029;-72
2022/06/20 09:27:06;;;;;;;4.32;1.23;;;20.20;99.90;;;;;;4145394;28;20515;-69
2022/06/20 09:29:27;;;;;;;4.53;1.38;;;20.30;99.90;;;;;;4147788;28;20026;-68
2022/06/20 09:31:29;;;;;;;5.85;1.25;;;20.40;99.90;;;;;;4149612;28;20116;-68
2022/06/20 09:33:53;;;;;;;3.20;1.00;;;20.40;99.90;;;;;;4146716;28;20049;-68
2022/06/20 09:36:40;;;;;;;3.13;1.15;;;20.50;99.80;;;;;;4140308;28;20041;-68
2022/06/20 09:39:01;;;;;;;3.33;1.10;;;20.70;98.40;;;;;;4103087;28;20042;-69
2022/06/20 09:41:16;;;;;;;4.30;1.00;;;20.90;99.20;;;;;;4138816;28;20037;-69
2022/06/20 09:43:25;;;;;;;2.15;1.00;;;21.00;96.00;;;;;;4150164;28;20045;-68
2022/06/20 09:46:01;;;;;;;7.88;1.33;;;21.10;99.40;;;;;;4149720;28;20160;-68
2022/06/20 09:48:13;;;;;;;2.95;1.20;;;21.20;98.10;;;;;;4128387;28;20041;-68
2022/06/20 09:50:32;;;;;;;2.25;1.00;;;21.30;97.30;;;;;;4152002;28;20050;-69
2022/06/20 09:53:08;;;;;;;4.40;1.17;;;21.40;97.00;;;;;;4150824;28;20049;-68
2022/06/20 09:55:24;;;;;;;3.15;0.85;;;21.30;98.00;;;;;;4150790;28;20034;-69
2022/06/20 09:57:39;;;;;;;3.38;1.15;;;21.30;96.20;;;;;;4152663;28;20498;-69
2022/06/20 09:59:48;;;;;;;4.18;1.30;;;21.30;97.90;;;;;;4152937;28;20882;-68
2022/06/20 10:02:13;;;;;;;4.63;1.15;;;21.20;96.70;;;;;;4150652;28;20042;-69
2022/06/20 10:04:29;;;;;;;3.28;1.20;;;21.20;97.30;;;;;;4149147;28;20156;-69
2022/06/20 10:06:35;;;;;;;2.95;1.13;;;21.20;97.80;;;;;;4149950;28;20092;-68
2022/06/20 10:08:59;;;;;;;5.55;1.17;;;21.20;96.00;;;;;;4151870;28;20040;-68
2022/06/20 10:11:10;;;;;;;2.67;1.15;;;21.30;97.50;;;;;;4152076;28;20074;-69
2022/06/20 10:13:27;;;;;;;4.82;1.08;;;21.20;96.80;;;;;;4148962;28;20445;-68
2022/06/20 10:15:46;;;;;;;2.53;0.95;;;21.20;97.70;;;;;;4152099;28;20042;-69
2022/06/20 10:18:03;;;;;;;3.53;1.20;;;21.30;96.50;;;;;;4158254;28;20034;-68
2022/06/20 10:20:22;;;;;;;3.95;1.42;;;21.30;94.90;;;;;;4155955;28;20537;-68
2022/06/20 10:22:37;;;;;;;3.35;1.35;;;21.30;97.70;;;;;;4157564;28;20064;-68
2022/06/20 10:25:14;;;;;;;3.90;1.20;;;21.40;95.80;;;;;;4156957;28;20172;-68
2022/06/20 10:27:26;;;;;;;9.27;1.33;;;21.40;95.50;;;;;;4156466;28;20145;-68
2022/06/20 10:29:42;;;;;;;2.83;1.02;;;21.50;95.20;;;;;;4156929;28;20525;-68
2022/06/20 10:31:51;;;;;;;2.72;1.13;;;21.60;94.80;;;;;;4153894;28;20121;-68
2022/06/20 10:34:29;;;;;;;2.67;1.10;;;21.70;94.20;;;;;;4158409;28;20060;-68
2022/06/20 10:36:40;;;;;;;5.15;1.50;;;21.90;95.00;;;;;;4152551;28;20030;-68
2022/06/20 10:38:40;;;;;;;2.65;0.85;;;21.80;93.50;;;;;;4155099;28;20564;-68
2022/06/20 10:40:50;;;;;;;3.50;1.20;;;22.00;94.80;;;;;;4156018;28;20037;-68
2022/06/20 10:43:11;;;;;;;8.70;1.40;;;22.00;94.60;;;;;;4155021;28;20520;-68
2022/06/20 10:45:34;;;;;;;3.17;1.00;;;22.00;93.80;;;;;;4146669;28;20036;-68
2022/06/20 10:48:03;;;;;;;3.13;1.10;;;22.00;93.80;;;;;;4153585;28;20026;-69
2022/06/20 10:50:45;;;;;;;1.67;1.00;;;22.00;93.30;;;;;;4160102;28;20030;-68
2022/06/20 10:53:05;;;;;;;4.47;1.13;;;22.00;95.10;;;;;;4121947;28;20508;-68
2022/06/20 10:55:18;;;;;;;9.25;1.65;;;21.90;94.10;;;;;;4150642;28;20034;-68
2022/06/20 10:57:52;;;;;;;2.30;1.33;;;21.90;94.30;;;;;;4144623;28;20034;-68
2022/06/20 11:00:12;;;;;;;2.78;1.23;;;21.90;94.60;;;;;;4151247;28;20030;-68
2022/06/20 11:02:40;;;;;;;5.82;1.70;;;21.90;94.10;;;;;;4149769;28;20048;-68
2022/06/20 11:05:09;;;;;;;3.08;1.40;;;21.80;94.30;;;;;;4152879;28;20029;-68
2022/06/20 11:07:12;;;;;;;2.58;1.23;;;21.70;93.60;;;;;;4150803;28;20046;-68
2022/06/20 11:09:39;;;;;;;5.72;1.30;;;21.70;92.00;;;;;;4154249;28;20073;-68
2022/06/20 11:11:58;;;;;;;3.63;1.02;;;21.70;92.20;;;;;;4151950;28;20578;-68
2022/06/20 11:14:13;;;;;;;4.97;1.33;;;21.70;91.80;;;;;;4155269;28;20038;-68
2022/06/20 11:16:32;;;;;;;4.78;1.58;;;21.80;92.20;;;;;;4154752;28;20072;-68
2022/06/20 11:18:48;;;;;;;8.65;1.63;;;21.80;90.90;;;;;;4154768;28;20034;-68
2022/06/20 11:20:52;;;;;;;2.92;1.15;;;21.80;92.20;;;;;;4153216;28;20037;-68
2022/06/20 11:23:00;;;;;;;3.50;1.13;;;21.90;92.50;;;;;;4155540;28;20103;-68
2022/06/20 11:25:26;;;;;;;3.65;1.60;;;21.90;90.70;;;;;;4156040;28;20048;-68
2022/06/20 11:27:46;;;;;;;1.52;1.10;;;22.00;90.80;;;;;;4153720;28;20057;-68